Parc national de Yoho, Colombie-Britannique

Conditions des dernières 24 heures

Date / Heure
(HAR)
Conditions Temp
(°C)
Humidité
(%)
Point de rosée
(°C)
Vent
(km/h)
Pression
(kPa)
Visibilité
(km)
31 août 2015
17:00 N.D. 9 80 6 N.D. 101,0 N.D.
16:00 N.D. 10 70 5 N.D. 101,0 N.D.
15:00 N.D. 11   72 6 OSO 30 rafale 38 101,0 N.D.
14:00 N.D. 11   73 6 OSO 34 101,0 N.D.
13:00 N.D. 9 84 6 OSO 29 rafale 39 101,0 N.D.
12:00 N.D. 8 88 6 OSO 29 rafale 41 101,1 N.D.
11:00 N.D. 7 89 6 O 21 101,1 N.D.
10:00 N.D. 6 89 5 O 26 101,0 N.D.
9:00 N.D. 6 96 5 O 24 rafale 33 101,0 N.D.
8:00 N.D. 5   97 4 O 25 101,0 N.D.
7:00 N.D. 5   97 4 O 27 rafale 37 101,0 N.D.
6:00 N.D. 5   97 4 OSO 27 100,8 N.D.
5:00 N.D. 5   98 4 O 22 rafale 32 100,9 N.D.
4:00 N.D. 5   98 4 O 28 rafale 36 100,9 N.D.
3:00 N.D. 5   98 4 O 25 100,9 N.D.
2:00 N.D. 5   98 5 OSO 22 100,9 N.D.
1:00 N.D. 5   99 5 OSO 25 100,9 N.D.
0:00 N.D. 5   99 5 O 17 rafale 30 100,9 N.D.
30 août 2015
23:00 N.D. 5   98 5 O 20 100,9 N.D.
22:00 N.D. 5   98 5 OSO 17 100,9 N.D.
21:00 N.D. 6 98 6 O 17 100,9 N.D.
20:00 N.D. 6 97 6 O 18 100,9 N.D.
19:00 N.D. 7 95 6 OSO 21 100,9 N.D.
18:00 N.D. 10 82 7 OSO 22 100,8 N.D.
17:00 N.D. 7 93 6 O 16 100,8 N.D.
N.D. non disponible
↑ température la plus haute
↓ température la plus basse

Si vous désirez plus de données historiques sur les conditions météo, s.v.p. visitez Données climatologiques en ligne.

Ce que nous faisons

Date de modification :